sensor_id;sensor_type;location;lat;lon;timestamp;pressure;altitude;pressure_sealevel;temperature;humidity
38400;BME280;24180;42.676;23.320;2023-02-21T00:02:37;95151.91;;;3.85;100.00
38400;BME280;24180;42.676;23.320;2023-02-21T00:05:20;95147.22;;;3.92;100.00
38400;BME280;24180;42.676;23.320;2023-02-21T00:08:04;95115.97;;;3.72;100.00
38400;BME280;24180;42.676;23.320;2023-02-21T00:10:48;95148.88;;;3.93;100.00
38400;BME280;24180;42.676;23.320;2023-02-21T00:13:35;95167.31;;;3.98;100.00
38400;BME280;24180;42.676;23.320;2023-02-21T00:16:19;95130.56;;;3.85;100.00
38400;BME280;24180;42.676;23.320;2023-02-21T00:19:03;95163.47;;;4.05;100.00
38400;BME280;24180;42.676;23.320;2023-02-21T00:21:48;95176.19;;;4.06;100.00
38400;BME280;24180;42.676;23.320;2023-02-21T00:24:32;95163.47;;;4.05;100.00
38400;BME280;24180;42.676;23.320;2023-02-21T00:27:16;95136.69;;;3.96;100.00
38400;BME280;24180;42.676;23.320;2023-02-21T00:30:00;95152.13;;;4.09;100.00
38400;BME280;24180;42.676;23.320;2023-02-21T00:32:44;95159.22;;;4.18;100.00
38400;BME280;24180;42.676;23.320;2023-02-21T00:35:27;95153.03;;;4.08;100.00
38400;BME280;24180;42.676;23.320;2023-02-21T00:38:11;95126.50;;;4.09;100.00
38400;BME280;24180;42.676;23.320;2023-02-21T00:40:56;95144.13;;;4.13;100.00
38400;BME280;24180;42.676;23.320;2023-02-21T00:43:40;95151.44;;;4.19;100.00
38400;BME280;24180;42.676;23.320;2023-02-21T00:46:24;95132.47;;;4.22;100.00
38400;BME280;24180;42.676;23.320;2023-02-21T00:49:08;95148.22;;;4.30;100.00
38400;BME280;24180;42.676;23.320;2023-02-21T00:51:53;95138.56;;;4.21;100.00
38400;BME280;24180;42.676;23.320;2023-02-21T00:54:38;95119.28;;;4.28;100.00
38400;BME280;24180;42.676;23.320;2023-02-21T00:57:22;95132.66;;;4.33;100.00
38400;BME280;24180;42.676;23.320;2023-02-21T01:00:08;95119.09;;;4.31;100.00
38400;BME280;24180;42.676;23.320;2023-02-21T01:02:52;95132.00;;;4.56;100.00
38400;BME280;24180;42.676;23.320;2023-02-21T01:05:36;95118.03;;;4.48;100.00
38400;BME280;24180;42.676;23.320;2023-02-21T01:08:20;95091.75;;;4.05;100.00
38400;BME280;24180;42.676;23.320;2023-02-21T01:11:04;95110.88;;;4.26;100.00
38400;BME280;24180;42.676;23.320;2023-02-21T01:13:48;95106.81;;;4.36;100.00
38400;BME280;24180;42.676;23.320;2023-02-21T01:16:32;95069.53;;;4.18;100.00
38400;BME280;24180;42.676;23.320;2023-02-21T01:19:16;95065.13;;;4.20;100.00
38400;BME280;24180;42.676;23.320;2023-02-21T01:22:02;95071.22;;;4.32;100.00
38400;BME280;24180;42.676;23.320;2023-02-21T01:24:48;95059.59;;;4.26;100.00
38400;BME280;24180;42.676;23.320;2023-02-21T01:27:32;95065.88;;;4.35;100.00
38400;BME280;24180;42.676;23.320;2023-02-21T01:30:16;95073.50;;;4.36;100.00
38400;BME280;24180;42.676;23.320;2023-02-21T01:33:00;95057.78;;;4.28;100.00
38400;BME280;24180;42.676;23.320;2023-02-21T01:35:44;95071.13;;;4.33;100.00
38400;BME280;24180;42.676;23.320;2023-02-21T01:38:28;95063.47;;;4.19;100.00
38400;BME280;24180;42.676;23.320;2023-02-21T01:41:12;95068.91;;;4.14;100.00
38400;BME280;24180;42.676;23.320;2023-02-21T01:44:38;95089.66;;;4.24;100.00
38400;BME280;24180;42.676;23.320;2023-02-21T01:47:24;95077.53;;;4.26;100.00
38400;BME280;24180;42.676;23.320;2023-02-21T01:50:15;95092.94;;;4.26;100.00
38400;BME280;24180;42.676;23.320;2023-02-21T01:53:12;95075.75;;;4.14;100.00
38400;BME280;24180;42.676;23.320;2023-02-21T01:55:57;95066.88;;;4.19;100.00
38400;BME280;24180;42.676;23.320;2023-02-21T01:58:44;95034.50;;;3.92;100.00
38400;BME280;24180;42.676;23.320;2023-02-21T02:01:52;95053.56;;;4.27;100.00
38400;BME280;24180;42.676;23.320;2023-02-21T02:04:37;95048.03;;;4.20;100.00
38400;BME280;24180;42.676;23.320;2023-02-21T02:07:21;95054.75;;;4.09;100.00
38400;BME280;24180;42.676;23.320;2023-02-21T02:10:07;95047.41;;;4.17;100.00
38400;BME280;24180;42.676;23.320;2023-02-21T02:21:34;95037.91;;;4.32;100.00
38400;BME280;24180;42.676;23.320;2023-02-21T02:24:20;95039.88;;;4.14;100.00
38400;BME280;24180;42.676;23.320;2023-02-21T02:35:37;95013.63;;;4.10;100.00
38400;BME280;24180;42.676;23.320;2023-02-21T02:40:39;95045.66;;;4.30;100.00
38400;BME280;24180;42.676;23.320;2023-02-21T02:43:29;95016.22;;;4.23;100.00
38400;BME280;24180;42.676;23.320;2023-02-21T02:46:10;95030.72;;;4.37;100.00
38400;BME280;24180;42.676;23.320;2023-02-21T02:49:09;95004.88;;;4.27;100.00
38400;BME280;24180;42.676;23.320;2023-02-21T02:51:34;95027.88;;;4.41;100.00
38400;BME280;24180;42.676;23.320;2023-02-21T02:54:00;95023.53;;;4.42;100.00
38400;BME280;24180;42.676;23.320;2023-02-21T02:56:26;95030.13;;;4.46;100.00
38400;BME280;24180;42.676;23.320;2023-02-21T02:58:53;95034.53;;;4.44;100.00
38400;BME280;24180;42.676;23.320;2023-02-21T03:07:12;95030.63;;;4.38;100.00
38400;BME280;24180;42.676;23.320;2023-02-21T03:10:01;95035.56;;;4.41;100.00
38400;BME280;24180;42.676;23.320;2023-02-21T03:15:45;95036.88;;;4.34;100.00
38400;BME280;24180;42.676;23.320;2023-02-21T03:20:53;95024.75;;;4.23;100.00
38400;BME280;24180;42.676;23.320;2023-02-21T03:23:21;95011.81;;;4.12;100.00
38400;BME280;24180;42.676;23.320;2023-02-21T03:25:50;95034.63;;;4.03;100.00
38400;BME280;24180;42.676;23.320;2023-02-21T03:28:17;95011.78;;;4.00;100.00
38400;BME280;24180;42.676;23.320;2023-02-21T03:30:44;95016.44;;;3.93;100.00
38400;BME280;24180;42.676;23.320;2023-02-21T03:33:12;95013.94;;;4.06;100.00
38400;BME280;24180;42.676;23.320;2023-02-21T03:35:38;95010.06;;;3.86;100.00
38400;BME280;24180;42.676;23.320;2023-02-21T03:38:03;94987.03;;;3.59;100.00
38400;BME280;24180;42.676;23.320;2023-02-21T03:40:31;95003.97;;;3.74;100.00
38400;BME280;24180;42.676;23.320;2023-02-21T03:42:59;95005.34;;;3.80;100.00
38400;BME280;24180;42.676;23.320;2023-02-21T03:45:25;95015.59;;;3.80;100.00
38400;BME280;24180;42.676;23.320;2023-02-21T03:47:50;95003.44;;;3.69;100.00
38400;BME280;24180;42.676;23.320;2023-02-21T03:50:16;95015.97;;;3.74;100.00
38400;BME280;24180;42.676;23.320;2023-02-21T03:52:42;95003.66;;;3.66;100.00
38400;BME280;24180;42.676;23.320;2023-02-21T03:55:08;95042.88;;;3.81;100.00
38400;BME280;24180;42.676;23.320;2023-02-21T03:57:33;95004.03;;;3.60;100.00
38400;BME280;24180;42.676;23.320;2023-02-21T03:59:59;95006.00;;;3.69;100.00
38400;BME280;24180;42.676;23.320;2023-02-21T04:02:25;95033.03;;;3.88;100.00
38400;BME280;24180;42.676;23.320;2023-02-21T04:04:51;95014.78;;;3.65;100.00
38400;BME280;24180;42.676;23.320;2023-02-21T04:07:19;95013.69;;;3.69;100.00
38400;BME280;24180;42.676;23.320;2023-02-21T04:09:46;95029.38;;;3.92;100.00
38400;BME280;24180;42.676;23.320;2023-02-21T04:12:11;95008.88;;;3.65;100.00
38400;BME280;24180;42.676;23.320;2023-02-21T04:14:37;95030.63;;;3.72;100.00
38400;BME280;24180;42.676;23.320;2023-02-21T04:17:03;95037.69;;;3.68;100.00
38400;BME280;24180;42.676;23.320;2023-02-21T04:19:28;95030.50;;;3.73;100.00
38400;BME280;24180;42.676;23.320;2023-02-21T04:21:54;95042.13;;;3.79;100.00
38400;BME280;24180;42.676;23.320;2023-02-21T04:24:19;95055.91;;;3.91;100.00
38400;BME280;24180;42.676;23.320;2023-02-21T04:26:44;95022.69;;;3.62;100.00
38400;BME280;24180;42.676;23.320;2023-02-21T04:29:10;95036.56;;;3.72;100.00
38400;BME280;24180;42.676;23.320;2023-02-21T04:31:36;95030.22;;;3.51;100.00
38400;BME280;24180;42.676;23.320;2023-02-21T04:34:02;95070.34;;;3.92;100.00
38400;BME280;24180;42.676;23.320;2023-02-21T04:36:27;95067.66;;;3.81;100.00
38400;BME280;24180;42.676;23.320;2023-02-21T04:38:52;95033.19;;;3.58;100.00
38400;BME280;24180;42.676;23.320;2023-02-21T04:41:18;95041.72;;;3.58;100.00
38400;BME280;24180;42.676;23.320;2023-02-21T04:43:44;95065.03;;;3.54;100.00
38400;BME280;24180;42.676;23.320;2023-02-21T04:46:12;95046.91;;;3.71;100.00
38400;BME280;24180;42.676;23.320;2023-02-21T04:48:41;95057.34;;;3.54;100.00
38400;BME280;24180;42.676;23.320;2023-02-21T04:51:07;95049.53;;;3.69;100.00
38400;BME280;24180;42.676;23.320;2023-02-21T04:53:32;95020.53;;;3.42;100.00
38400;BME280;24180;42.676;23.320;2023-02-21T04:55:58;95057.78;;;3.74;100.00
38400;BME280;24180;42.676;23.320;2023-02-21T04:58:23;95049.53;;;3.69;100.00
38400;BME280;24180;42.676;23.320;2023-02-21T05:00:49;95042.34;;;3.62;100.00
38400;BME280;24180;42.676;23.320;2023-02-21T05:03:14;95023.50;;;3.63;100.00
38400;BME280;24180;42.676;23.320;2023-02-21T05:05:39;95036.81;;;3.82;100.00
38400;BME280;24180;42.676;23.320;2023-02-21T05:08:05;95031.78;;;3.81;100.00
38400;BME280;24180;42.676;23.320;2023-02-21T05:10:30;95025.22;;;3.76;100.00
38400;BME280;24180;42.676;23.320;2023-02-21T05:12:55;95024.81;;;3.83;100.00
38400;BME280;24180;42.676;23.320;2023-02-21T05:15:21;95026.56;;;3.82;100.00
38400;BME280;24180;42.676;23.320;2023-02-21T05:17:46;95012.44;;;3.62;100.00
38400;BME280;24180;42.676;23.320;2023-02-21T05:20:12;95016.41;;;3.81;100.00
38400;BME280;24180;42.676;23.320;2023-02-21T05:22:38;95016.56;;;3.65;100.00
38400;BME280;24180;42.676;23.320;2023-02-21T05:25:15;94993.59;;;3.63;100.00
38400;BME280;24180;42.676;23.320;2023-02-21T05:27:41;95014.91;;;3.64;100.00
38400;BME280;24180;42.676;23.320;2023-02-21T05:30:07;95001.56;;;3.59;100.00
38400;BME280;24180;42.676;23.320;2023-02-21T05:32:33;94998.28;;;3.57;100.00
38400;BME280;24180;42.676;23.320;2023-02-21T05:34:58;94998.56;;;3.52;100.00
38400;BME280;24180;42.676;23.320;2023-02-21T05:37:24;95007.25;;;3.50;100.00
38400;BME280;24180;42.676;23.320;2023-02-21T05:39:49;94968.34;;;3.45;100.00
38400;BME280;24180;42.676;23.320;2023-02-21T05:42:15;95022.53;;;3.78;100.00
38400;BME280;24180;42.676;23.320;2023-02-21T05:44:46;95024.59;;;3.73;100.00
38400;BME280;24180;42.676;23.320;2023-02-21T05:47:12;95021.81;;;3.76;100.00
38400;BME280;24180;42.676;23.320;2023-02-21T05:49:38;95031.97;;;3.77;100.00
38400;BME280;24180;42.676;23.320;2023-02-21T05:52:04;95011.72;;;3.60;100.00
38400;BME280;24180;42.676;23.320;2023-02-21T05:54:30;95035.88;;;3.83;100.00
38400;BME280;24180;42.676;23.320;2023-02-21T05:56:56;95043.09;;;3.91;100.00
38400;BME280;24180;42.676;23.320;2023-02-21T05:59:21;95051.25;;;4.10;100.00
38400;BME280;24180;42.676;23.320;2023-02-21T06:01:48;95055.88;;;4.17;100.00
38400;BME280;24180;42.676;23.320;2023-02-21T06:04:15;95032.59;;;4.08;100.00
38400;BME280;24180;42.676;23.320;2023-02-21T06:06:41;95061.91;;;4.43;100.00
38400;BME280;24180;42.676;23.320;2023-02-21T06:09:07;95056.78;;;4.43;100.00
38400;BME280;24180;42.676;23.320;2023-02-21T06:11:34;95046.63;;;4.42;100.00
38400;BME280;24180;42.676;23.320;2023-02-21T06:14:03;95057.44;;;4.59;100.00
38400;BME280;24180;42.676;23.320;2023-02-21T06:16:36;95051.47;;;4.59;100.00
38400;BME280;24180;42.676;23.320;2023-02-21T06:19:04;95041.81;;;4.50;100.00
38400;BME280;24180;42.676;23.320;2023-02-21T06:21:30;95046.75;;;4.53;100.00
38400;BME280;24180;42.676;23.320;2023-02-21T06:23:56;95039.47;;;4.59;100.00
38400;BME280;24180;42.676;23.320;2023-02-21T06:26:22;95025.72;;;4.48;100.00
38400;BME280;24180;42.676;23.320;2023-02-21T06:28:48;95069.38;;;4.73;100.00
38400;BME280;24180;42.676;23.320;2023-02-21T06:31:15;95052.91;;;4.63;100.00
38400;BME280;24180;42.676;23.320;2023-02-21T06:33:40;95048.22;;;4.57;100.00
38400;BME280;24180;42.676;23.320;2023-02-21T06:36:09;95046.91;;;4.77;100.00
38400;BME280;24180;42.676;23.320;2023-02-21T06:38:36;95047.22;;;4.85;100.00
38400;BME280;24180;42.676;23.320;2023-02-21T06:41:08;95063.31;;;4.99;100.00
38400;BME280;24180;42.676;23.320;2023-02-21T06:43:34;95067.94;;;5.07;100.00
38400;BME280;24180;42.676;23.320;2023-02-21T06:46:01;95060.84;;;5.10;100.00
38400;BME280;24180;42.676;23.320;2023-02-21T06:48:27;95077.91;;;5.11;100.00
38400;BME280;24180;42.676;23.320;2023-02-21T06:50:52;95067.00;;;5.33;100.00
38400;BME280;24180;42.676;23.320;2023-02-21T06:53:17;95042.19;;;5.08;100.00
38400;BME280;24180;42.676;23.320;2023-02-21T06:55:43;95059.41;;;5.32;100.00
38400;BME280;24180;42.676;23.320;2023-02-21T06:58:08;95044.84;;;5.19;100.00
38400;BME280;24180;42.676;23.320;2023-02-21T07:00:35;95059.38;;;5.44;100.00
38400;BME280;24180;42.676;23.320;2023-02-21T07:03:00;95034.84;;;5.40;100.00
38400;BME280;24180;42.676;23.320;2023-02-21T07:05:25;95045.91;;;5.53;100.00
38400;BME280;24180;42.676;23.320;2023-02-21T07:07:51;95064.66;;;5.79;100.00
38400;BME280;24180;42.676;23.320;2023-02-21T07:10:16;95068.88;;;5.93;100.00
38400;BME280;24180;42.676;23.320;2023-02-21T07:12:42;95074.34;;;6.12;100.00
38400;BME280;24180;42.676;23.320;2023-02-21T07:15:07;95075.66;;;6.18;100.00
38400;BME280;24180;42.676;23.320;2023-02-21T07:17:33;95068.03;;;6.40;100.00
38400;BME280;24180;42.676;23.320;2023-02-21T07:19:58;95059.06;;;6.45;100.00
38400;BME280;24180;42.676;23.320;2023-02-21T07:22:24;95069.16;;;6.59;100.00
38400;BME280;24180;42.676;23.320;2023-02-21T07:24:53;95042.84;;;6.56;100.00
38400;BME280;24180;42.676;23.320;2023-02-21T07:27:19;95054.16;;;6.77;100.00
38400;BME280;24180;42.676;23.320;2023-02-21T07:29:48;95025.59;;;6.80;100.00
38400;BME280;24180;42.676;23.320;2023-02-21T07:32:15;95041.31;;;6.99;100.00
38400;BME280;24180;42.676;23.320;2023-02-21T07:34:41;95048.69;;;7.04;100.00
38400;BME280;24180;42.676;23.320;2023-02-21T07:37:06;95048.94;;;7.12;100.00
38400;BME280;24180;42.676;23.320;2023-02-21T07:39:32;95038.63;;;7.12;100.00
38400;BME280;24180;42.676;23.320;2023-02-21T07:41:57;95038.97;;;7.07;100.00
38400;BME280;24180;42.676;23.320;2023-02-21T07:44:23;95036.19;;;7.22;100.00
38400;BME280;24180;42.676;23.320;2023-02-21T07:46:48;95015.09;;;7.05;100.00
38400;BME280;24180;42.676;23.320;2023-02-21T07:49:13;95014.63;;;7.12;100.00
38400;BME280;24180;42.676;23.320;2023-02-21T07:51:39;95021.53;;;7.22;100.00
38400;BME280;24180;42.676;23.320;2023-02-21T07:54:04;95021.91;;;7.29;100.00
38400;BME280;24180;42.676;23.320;2023-02-21T07:56:30;95024.00;;;7.35;100.00
38400;BME280;24180;42.676;23.320;2023-02-21T07:58:55;95023.19;;;7.45;100.00
38400;BME280;24180;42.676;23.320;2023-02-21T08:01:23;95022.00;;;7.61;100.00
38400;BME280;24180;42.676;23.320;2023-02-21T08:03:49;94987.13;;;7.45;100.00
38400;BME280;24180;42.676;23.320;2023-02-21T08:06:14;95023.41;;;7.65;100.00
38400;BME280;24180;42.676;23.320;2023-02-21T08:08:39;94992.03;;;7.48;100.00
38400;BME280;24180;42.676;23.320;2023-02-21T08:11:05;95015.66;;;7.76;100.00
38400;BME280;24180;42.676;23.320;2023-02-21T08:13:30;95016.47;;;7.76;100.00
38400;BME280;24180;42.676;23.320;2023-02-21T08:15:56;95002.50;;;7.79;100.00
38400;BME280;24180;42.676;23.320;2023-02-21T08:18:22;94987.44;;;7.74;100.00
38400;BME280;24180;42.676;23.320;2023-02-21T08:20:53;94987.44;;;7.74;100.00
38400;BME280;24180;42.676;23.320;2023-02-21T08:23:20;94993.91;;;8.00;100.00
38400;BME280;24180;42.676;23.320;2023-02-21T08:25:46;95018.84;;;8.11;100.00
38400;BME280;24180;42.676;23.320;2023-02-21T08:28:12;95016.34;;;8.21;100.00
38400;BME280;24180;42.676;23.320;2023-02-21T08:30:38;94994.22;;;8.07;100.00
38400;BME280;24180;42.676;23.320;2023-02-21T08:33:04;95005.91;;;8.33;100.00
38400;BME280;24180;42.676;23.320;2023-02-21T08:35:29;94996.97;;;8.37;100.00
38400;BME280;24180;42.676;23.320;2023-02-21T08:37:55;94976.06;;;8.40;100.00
38400;BME280;24180;42.676;23.320;2023-02-21T08:40:22;94967.22;;;8.54;100.00
38400;BME280;24180;42.676;23.320;2023-02-21T08:42:50;95000.50;;;8.78;100.00
38400;BME280;24180;42.676;23.320;2023-02-21T08:45:18;94997.97;;;8.87;100.00
38400;BME280;24180;42.676;23.320;2023-02-21T08:47:44;94998.16;;;8.75;100.00
38400;BME280;24180;42.676;23.320;2023-02-21T08:50:09;94986.06;;;8.75;100.00
38400;BME280;24180;42.676;23.320;2023-02-21T08:52:35;94973.69;;;8.90;99.80
38400;BME280;24180;42.676;23.320;2023-02-21T08:55:00;94980.56;;;9.10;98.20
38400;BME280;24180;42.676;23.320;2023-02-21T08:57:26;95002.53;;;9.25;98.42
38400;BME280;24180;42.676;23.320;2023-02-21T08:59:51;94972.69;;;9.12;98.93
38400;BME280;24180;42.676;23.320;2023-02-21T09:02:23;94978.34;;;9.26;97.47
38400;BME280;24180;42.676;23.320;2023-02-21T09:04:57;94977.78;;;9.32;97.23
38400;BME280;24180;42.676;23.320;2023-02-21T09:07:23;94962.22;;;9.13;95.75
38400;BME280;24180;42.676;23.320;2023-02-21T09:09:49;94967.84;;;9.28;95.83
38400;BME280;24180;42.676;23.320;2023-02-21T09:12:14;94979.34;;;9.45;95.94
38400;BME280;24180;42.676;23.320;2023-02-21T09:14:42;94979.72;;;9.30;96.17
38400;BME280;24180;42.676;23.320;2023-02-21T09:17:09;94980.81;;;9.37;95.81
38400;BME280;24180;42.676;23.320;2023-02-21T09:19:35;94963.41;;;9.39;95.63
38400;BME280;24180;42.676;23.320;2023-02-21T09:22:01;94962.50;;;9.60;94.13
38400;BME280;24180;42.676;23.320;2023-02-21T09:24:28;94975.38;;;9.90;93.12
38400;BME280;24180;42.676;23.320;2023-02-21T09:26:55;94968.00;;;9.95;91.59
38400;BME280;24180;42.676;23.320;2023-02-21T09:29:28;94960.97;;;10.07;90.64
38400;BME280;24180;42.676;23.320;2023-02-21T09:31:53;94963.44;;;10.27;89.70
38400;BME280;24180;42.676;23.320;2023-02-21T09:34:19;94943.28;;;10.41;88.40
38400;BME280;24180;42.676;23.320;2023-02-21T09:36:46;94959.59;;;10.70;88.58
38400;BME280;24180;42.676;23.320;2023-02-21T09:39:13;94954.22;;;10.91;85.08
38400;BME280;24180;42.676;23.320;2023-02-21T09:41:39;94922.38;;;11.08;82.36
38400;BME280;24180;42.676;23.320;2023-02-21T09:44:12;94935.34;;;11.72;80.95
38400;BME280;24180;42.676;23.320;2023-02-21T09:46:48;94938.91;;;12.59;78.20
38400;BME280;24180;42.676;23.320;2023-02-21T09:49:26;94922.28;;;14.46;63.41
38400;BME280;24180;42.676;23.320;2023-02-21T09:51:53;94910.91;;;16.27;50.72
38400;BME280;24180;42.676;23.320;2023-02-21T09:56:56;94924.66;;;17.92;45.29
38400;BME280;24180;42.676;23.320;2023-02-21T09:59:24;94917.41;;;19.21;42.33
38400;BME280;24180;42.676;23.320;2023-02-21T10:02:02;94911.28;;;20.43;39.12
38400;BME280;24180;42.676;23.320;2023-02-21T10:09:46;94889.69;;;24.55;31.38
38400;BME280;24180;42.676;23.320;2023-02-21T10:12:24;94867.97;;;24.77;30.88
38400;BME280;24180;42.676;23.320;2023-02-21T10:20:52;94858.34;;;24.94;29.96
38400;BME280;24180;42.676;23.320;2023-02-21T10:23:40;94868.22;;;25.68;28.13
38400;BME280;24180;42.676;23.320;2023-02-21T10:26:13;94847.66;;;26.27;28.17
38400;BME280;24180;42.676;23.320;2023-02-21T10:28:40;94844.81;;;26.78;26.41
38400;BME280;24180;42.676;23.320;2023-02-21T10:31:29;94860.28;;;27.48;25.82
38400;BME280;24180;42.676;23.320;2023-02-21T10:33:55;94837.47;;;28.17;25.39
38400;BME280;24180;42.676;23.320;2023-02-21T10:36:24;94853.75;;;29.06;24.24
38400;BME280;24180;42.676;23.320;2023-02-21T10:38:57;94846.94;;;29.20;23.75
38400;BME280;24180;42.676;23.320;2023-02-21T10:41:26;94829.22;;;29.46;23.64
38400;BME280;24180;42.676;23.320;2023-02-21T10:43:59;94838.59;;;29.12;21.63
38400;BME280;24180;42.676;23.320;2023-02-21T10:46:39;94834.28;;;26.83;22.16
38400;BME280;24180;42.676;23.320;2023-02-21T10:49:29;94823.13;;;26.20;22.20
38400;BME280;24180;42.676;23.320;2023-02-21T10:54:34;94811.19;;;24.19;23.40
38400;BME280;24180;42.676;23.320;2023-02-21T10:57:02;94794.84;;;24.11;23.29
38400;BME280;24180;42.676;23.320;2023-02-21T10:59:31;94788.72;;;24.10;23.59
38400;BME280;24180;42.676;23.320;2023-02-21T11:01:58;94808.69;;;23.47;24.10
38400;BME280;24180;42.676;23.320;2023-02-21T11:04:31;94799.00;;;22.55;24.97
38400;BME280;24180;42.676;23.320;2023-02-21T11:12:16;94797.16;;;22.80;24.80
38400;BME280;24180;42.676;23.320;2023-02-21T11:17:25;94755.31;;;21.71;26.34
38400;BME280;24180;42.676;23.320;2023-02-21T11:22:40;94768.41;;;21.46;26.14
38400;BME280;24180;42.676;23.320;2023-02-21T11:25:26;94781.19;;;20.66;27.47
38400;BME280;24180;42.676;23.320;2023-02-21T11:33:25;94767.41;;;18.06;30.27
38400;BME280;24180;42.676;23.320;2023-02-21T11:35:53;94756.47;;;17.82;30.95
38400;BME280;24180;42.676;23.320;2023-02-21T11:38:41;94771.88;;;17.70;31.20
38400;BME280;24180;42.676;23.320;2023-02-21T11:43:56;94726.72;;;17.11;32.34
38400;BME280;24180;42.676;23.320;2023-02-21T11:46:36;94756.16;;;17.13;32.41
38400;BME280;24180;42.676;23.320;2023-02-21T11:51:39;94728.91;;;17.07;33.39
38400;BME280;24180;42.676;23.320;2023-02-21T11:54:06;94729.34;;;17.11;33.39
38400;BME280;24180;42.676;23.320;2023-02-21T11:56:48;94727.44;;;17.19;32.76
38400;BME280;24180;42.676;23.320;2023-02-21T12:02:45;94730.88;;;17.20;33.37
38400;BME280;24180;42.676;23.320;2023-02-21T12:08:17;94708.31;;;17.19;33.59
38400;BME280;24180;42.676;23.320;2023-02-21T12:48:03;94624.06;;;17.09;35.27
38400;BME280;24180;42.676;23.320;2023-02-21T12:50:34;94655.13;;;17.33;34.96
38400;BME280;24180;42.676;23.320;2023-02-21T12:53:09;94661.94;;;17.34;35.05
38400;BME280;24180;42.676;23.320;2023-02-21T12:55:39;94637.03;;;17.17;35.28
38400;BME280;24180;42.676;23.320;2023-02-21T13:01:10;94663.31;;;17.30;35.33
38400;BME280;24180;42.676;23.320;2023-02-21T13:12:12;94650.06;;;17.31;34.85
38400;BME280;24180;42.676;23.320;2023-02-21T13:14:49;94620.09;;;17.13;34.86
38400;BME280;24180;42.676;23.320;2023-02-21T13:17:18;94641.25;;;17.18;35.00
38400;BME280;24180;42.676;23.320;2023-02-21T13:19:48;94640.78;;;17.29;35.08
38400;BME280;24180;42.676;23.320;2023-02-21T13:28:35;94598.78;;;17.16;34.85
38400;BME280;24180;42.676;23.320;2023-02-21T13:31:05;94625.03;;;17.50;34.51
38400;BME280;24180;42.676;23.320;2023-02-21T13:38:43;94609.13;;;17.45;34.20
38400;BME280;24180;42.676;23.320;2023-02-21T13:41:10;94595.81;;;17.47;33.92
38400;BME280;24180;42.676;23.320;2023-02-21T13:43:47;94627.75;;;17.57;33.97
38400;BME280;24180;42.676;23.320;2023-02-21T13:57:37;94586.41;;;17.52;33.50
38400;BME280;24180;42.676;23.320;2023-02-21T14:03:03;94570.28;;;17.49;33.58
38400;BME280;24180;42.676;23.320;2023-02-21T14:11:15;94603.09;;;17.51;34.55
38400;BME280;24180;42.676;23.320;2023-02-21T14:18:39;94595.66;;;17.48;34.64
38400;BME280;24180;42.676;23.320;2023-02-21T14:21:09;94578.16;;;17.27;34.81
38400;BME280;24180;42.676;23.320;2023-02-21T14:23:44;94600.50;;;17.51;34.46
38400;BME280;24180;42.676;23.320;2023-02-21T14:31:56;94600.25;;;17.46;33.62
38400;BME280;24180;42.676;23.320;2023-02-21T14:45:14;94593.94;;;17.13;33.65
38400;BME280;24180;42.676;23.320;2023-02-21T14:48:09;94594.66;;;17.07;34.17
38400;BME280;24180;42.676;23.320;2023-02-21T15:04:33;94579.97;;;17.06;33.06
38400;BME280;24180;42.676;23.320;2023-02-21T15:10:16;94580.84;;;16.92;33.86
38400;BME280;24180;42.676;23.320;2023-02-21T15:12:57;94557.16;;;16.78;33.66
38400;BME280;24180;42.676;23.320;2023-02-21T15:15:30;94586.56;;;17.02;33.27
38400;BME280;24180;42.676;23.320;2023-02-21T15:21:21;94588.59;;;16.85;33.54
38400;BME280;24180;42.676;23.320;2023-02-21T15:23:58;94583.19;;;16.87;33.59
38400;BME280;24180;42.676;23.320;2023-02-21T15:26:27;94586.78;;;16.85;33.58
38400;BME280;24180;42.676;23.320;2023-02-21T15:29:09;94588.81;;;16.83;34.15
38400;BME280;24180;42.676;23.320;2023-02-21T15:31:48;94586.41;;;16.67;34.08
38400;BME280;24180;42.676;23.320;2023-02-21T15:34:17;94603.84;;;16.81;34.13
38400;BME280;24180;42.676;23.320;2023-02-21T15:39:39;94601.91;;;16.54;34.28
38400;BME280;24180;42.676;23.320;2023-02-21T15:42:08;94604.63;;;16.46;34.31
38400;BME280;24180;42.676;23.320;2023-02-21T15:44:36;94605.44;;;16.47;34.38
38400;BME280;24180;42.676;23.320;2023-02-21T15:47:11;94613.84;;;16.27;34.81
38400;BME280;24180;42.676;23.320;2023-02-21T15:52:47;94621.25;;;16.24;34.89
38400;BME280;24180;42.676;23.320;2023-02-21T16:00:40;94593.59;;;16.00;35.19
38400;BME280;24180;42.676;23.320;2023-02-21T16:03:35;94611.69;;;15.87;35.59
38400;BME280;24180;42.676;23.320;2023-02-21T16:06:23;94624.72;;;15.72;35.86
38400;BME280;24180;42.676;23.320;2023-02-21T16:11:25;94602.56;;;15.31;36.91
38400;BME280;24180;42.676;23.320;2023-02-21T16:13:51;94607.38;;;15.19;36.91
38400;BME280;24180;42.676;23.320;2023-02-21T16:16:16;94628.75;;;15.15;37.11
38400;BME280;24180;42.676;23.320;2023-02-21T16:18:42;94614.00;;;14.84;37.61
38400;BME280;24180;42.676;23.320;2023-02-21T16:21:21;94616.38;;;14.63;38.19
38400;BME280;24180;42.676;23.320;2023-02-21T16:23:47;94616.28;;;14.48;38.65
38400;BME280;24180;42.676;23.320;2023-02-21T16:28:40;94637.97;;;14.80;37.68
38400;BME280;24180;42.676;23.320;2023-02-21T16:31:07;94630.03;;;14.65;38.07
38400;BME280;24180;42.676;23.320;2023-02-21T16:33:34;94646.44;;;14.74;38.17
38400;BME280;24180;42.676;23.320;2023-02-21T16:36:08;94644.91;;;14.87;37.50
38400;BME280;24180;42.676;23.320;2023-02-21T16:38:34;94641.75;;;14.69;38.29
38400;BME280;24180;42.676;23.320;2023-02-21T16:40:59;94624.25;;;14.55;38.24
38400;BME280;24180;42.676;23.320;2023-02-21T16:43:27;94641.09;;;14.75;37.72
38400;BME280;24180;42.676;23.320;2023-02-21T16:45:55;94620.75;;;14.40;37.96
38400;BME280;24180;42.676;23.320;2023-02-21T16:48:26;94654.22;;;14.51;38.12